createdAt,value
2023-01-20T00:02:51.735Z,14.70
2023-01-20T00:07:00.278Z,15.63
2023-01-20T00:11:12.067Z,13.83
2023-01-20T00:15:20.587Z,13.37
2023-01-20T00:19:29.142Z,11.50
2023-01-20T00:23:37.766Z,11.10
2023-01-20T00:27:46.672Z,12.50
2023-01-20T00:31:55.204Z,13.00
2023-01-20T00:36:03.811Z,11.57
2023-01-20T00:40:12.935Z,12.40
2023-01-20T00:44:21.608Z,13.27
2023-01-20T00:48:30.187Z,13.73
2023-01-20T00:52:38.763Z,14.40
2023-01-20T00:56:47.296Z,15.37
2023-01-20T01:00:58.614Z,16.70
2023-01-20T01:05:07.746Z,13.87
2023-01-20T01:09:35.806Z,17.00
2023-01-20T01:13:44.433Z,12.70
2023-01-20T01:17:53.850Z,15.10
2023-01-20T01:22:02.403Z,13.17
2023-01-20T01:26:11.450Z,13.20
2023-01-20T01:30:20.096Z,15.20
2023-01-20T01:34:48.024Z,14.00
2023-01-20T01:38:57.400Z,12.33
2023-01-20T01:43:09.870Z,10.67
2023-01-20T01:47:18.753Z,13.67
2023-01-20T01:51:30.423Z,12.23
2023-01-20T01:55:42.049Z,13.50
2023-01-20T01:59:50.894Z,13.80
2023-01-20T02:04:02.696Z,13.67
2023-01-20T02:08:11.442Z,15.57
2023-01-20T02:12:23.134Z,16.00
2023-01-20T02:16:37.720Z,14.23
2023-01-20T02:21:20.644Z,14.00
2023-01-20T02:26:00.432Z,13.27
2023-01-20T02:30:21.134Z,13.27
2023-01-20T02:34:35.721Z,13.70
2023-01-20T02:38:50.383Z,11.77
2023-01-20T02:43:04.731Z,14.23
2023-01-20T02:47:34.311Z,10.90
2023-01-20T02:51:49.090Z,12.10
2023-01-20T02:55:58.442Z,12.60
2023-01-20T03:00:10.321Z,12.10
2023-01-20T03:04:22.556Z,11.77
2023-01-20T03:08:52.173Z,14.37
2023-01-20T03:13:03.757Z,11.87
2023-01-20T03:17:12.405Z,13.27
2023-01-20T03:21:21.591Z,10.33
2023-01-20T03:25:30.205Z,12.60
2023-01-20T03:29:38.917Z,12.70
2023-01-20T03:33:49.585Z,10.63
2023-01-20T03:37:58.307Z,13.60
2023-01-20T03:42:13.951Z,12.97
2023-01-20T03:46:52.330Z,12.13
2023-01-20T03:51:21.707Z,12.50
2023-01-20T03:55:39.261Z,11.70
2023-01-20T04:00:08.119Z,9.80
2023-01-20T04:04:19.928Z,12.03
2023-01-20T04:08:31.996Z,9.53
2023-01-20T04:12:40.727Z,11.47
2023-01-20T04:16:55.394Z,10.93
2023-01-20T04:21:04.867Z,10.40
2023-01-20T04:25:22.122Z,12.63
2023-01-20T04:29:30.706Z,10.10
2023-01-20T04:33:39.639Z,12.33
2023-01-20T04:37:48.176Z,8.87
2023-01-20T04:41:56.897Z,10.20
2023-01-20T04:46:05.622Z,10.73
2023-01-20T04:50:15.169Z,10.87
2023-01-20T04:54:23.733Z,9.90
2023-01-20T04:58:51.796Z,11.10
2023-01-20T05:03:02.427Z,10.90
2023-01-20T05:07:10.986Z,12.60
2023-01-20T05:11:19.550Z,11.53
2023-01-20T05:15:40.489Z,9.73
2023-01-20T05:19:50.561Z,11.70
2023-01-20T05:23:59.124Z,10.17
2023-01-20T05:28:07.705Z,11.07
2023-01-20T05:32:16.281Z,12.17
2023-01-20T05:36:24.794Z,12.03
2023-01-20T05:40:35.058Z,11.00
2023-01-20T05:44:43.618Z,12.43
2023-01-20T05:48:52.210Z,9.57
2023-01-20T05:53:00.722Z,9.40
2023-01-20T05:57:09.284Z,8.47
2023-01-20T06:01:18.123Z,10.00
2023-01-20T06:05:26.762Z,9.77
2023-01-20T06:09:35.329Z,9.80
2023-01-20T06:13:43.895Z,10.60
2023-01-20T06:17:53.206Z,11.40
2023-01-20T06:22:01.774Z,9.73
2023-01-20T06:26:29.648Z,12.20
2023-01-20T06:30:38.604Z,9.90
2023-01-20T06:34:48.321Z,10.13
2023-01-20T06:38:58.336Z,11.30
2023-01-20T06:43:06.939Z,12.30
2023-01-20T06:47:15.556Z,11.80
2023-01-20T06:51:24.076Z,9.23
2023-01-20T06:55:32.731Z,10.37
2023-01-20T06:59:41.309Z,12.80
2023-01-20T07:03:50.154Z,9.50
2023-01-20T07:07:58.701Z,13.57
2023-01-20T07:12:07.694Z,11.93
2023-01-20T07:16:35.768Z,11.50
2023-01-20T07:20:44.446Z,12.33
2023-01-20T07:24:53.078Z,12.40
2023-01-20T07:29:01.810Z,10.53
2023-01-20T07:33:10.645Z,10.57
2023-01-20T07:37:19.175Z,10.43
2023-01-20T07:41:27.796Z,11.47
2023-01-20T07:45:36.370Z,10.90
2023-01-20T07:49:45.810Z,9.13
2023-01-20T07:53:54.363Z,12.10
2023-01-20T07:58:03.174Z,10.70
2023-01-20T08:02:11.872Z,10.78
2023-01-20T08:06:23.052Z,10.40
2023-01-20T08:10:32.045Z,10.70
2023-01-20T08:14:42.951Z,11.70
2023-01-20T08:18:54.819Z,11.10
2023-01-20T08:23:03.365Z,10.67
2023-01-20T08:27:11.964Z,12.77
2023-01-20T08:31:40.051Z,10.00
2023-01-20T08:35:49.074Z,11.37
2023-01-20T08:39:57.805Z,10.90
2023-01-20T08:44:08.072Z,13.83
2023-01-20T08:48:18.363Z,10.83
2023-01-20T08:52:46.323Z,11.17
2023-01-20T08:56:54.855Z,8.80
2023-01-20T09:01:05.037Z,11.97
2023-01-20T09:05:14.983Z,10.13
2023-01-20T09:09:43.263Z,12.80
2023-01-20T09:14:03.760Z,10.17
2023-01-20T09:18:12.397Z,10.47
2023-01-20T09:22:21.026Z,9.70
2023-01-20T09:26:49.623Z,10.30
2023-01-20T09:31:04.275Z,9.73
2023-01-20T09:35:13.446Z,9.97
2023-01-20T09:39:40.382Z,10.30
2023-01-20T09:43:57.836Z,10.77
2023-01-20T09:48:32.977Z,10.70
2023-01-20T09:53:00.008Z,10.53
2023-01-20T09:57:11.737Z,13.43
2023-01-20T10:01:41.300Z,10.77
2023-01-20T10:05:52.854Z,11.15
2023-01-20T10:10:23.613Z,12.13
2023-01-20T10:14:38.273Z,11.60
2023-01-20T10:19:11.272Z,13.90
2023-01-20T10:23:35.157Z,10.53
2023-01-20T10:27:52.796Z,13.87
2023-01-20T10:32:03.720Z,10.17
2023-01-20T10:36:18.049Z,10.30
2023-01-20T10:40:47.500Z,9.10
2023-01-20T10:44:56.713Z,11.73
2023-01-20T10:49:25.734Z,11.10
2023-01-20T10:53:40.179Z,9.43
2023-01-20T10:57:57.551Z,8.83
2023-01-20T11:02:18.050Z,11.53
2023-01-20T11:06:27.972Z,8.93
2023-01-20T11:10:36.479Z,9.70
2023-01-20T11:14:46.817Z,8.50
2023-01-20T11:19:03.596Z,9.63
2023-01-20T11:23:49.696Z,10.20
2023-01-20T11:27:58.379Z,10.37
2023-01-20T11:32:10.047Z,8.40
2023-01-20T11:36:19.757Z,8.00
2023-01-20T11:40:29.824Z,9.03
2023-01-20T11:45:19.575Z,9.83
2023-01-20T11:49:36.043Z,8.20
2023-01-20T11:53:45.674Z,8.73
2023-01-20T11:58:00.003Z,8.90
2023-01-20T12:02:28.860Z,7.50
2023-01-20T12:06:42.308Z,8.13
2023-01-20T12:10:52.084Z,8.23
2023-01-20T12:15:06.830Z,6.87
2023-01-20T12:19:36.252Z,5.63
2023-01-20T12:23:47.842Z,7.00
2023-01-20T12:28:24.706Z,6.20
2023-01-20T12:32:33.509Z,7.30
2023-01-20T12:36:47.836Z,7.30
2023-01-20T12:40:59.430Z,6.00
2023-01-20T12:45:27.827Z,6.47
2023-01-20T12:49:51.455Z,6.47
2023-01-20T12:54:30.527Z,4.50
2023-01-20T12:58:40.399Z,6.10
2023-01-20T13:02:58.217Z,4.57
2023-01-20T13:07:15.918Z,5.80
2023-01-20T13:11:57.665Z,5.63
2023-01-20T13:16:18.546Z,6.50
2023-01-20T13:20:29.507Z,5.33
2023-01-20T13:24:39.364Z,7.47
2023-01-20T13:28:56.228Z,6.17
2023-01-20T13:33:08.810Z,5.70
2023-01-20T13:37:29.307Z,6.10
2023-01-20T13:41:49.402Z,6.33
2023-01-20T13:46:10.052Z,5.83
2023-01-20T13:50:27.851Z,6.53
2023-01-20T13:54:44.951Z,7.57
2023-01-20T13:58:54.492Z,5.87
2023-01-20T14:03:06.126Z,6.00
2023-01-20T14:07:29.472Z,6.50
2023-01-20T14:11:41.202Z,7.10
2023-01-20T14:15:52.361Z,6.90
2023-01-20T14:20:00.916Z,6.73
2023-01-20T14:24:35.711Z,5.80
2023-01-20T14:28:58.950Z,6.43
2023-01-20T14:33:09.306Z,7.07
2023-01-20T14:37:38.290Z,6.43
2023-01-20T14:42:07.740Z,6.80
2023-01-20T14:46:16.983Z,6.57
2023-01-20T14:50:26.453Z,5.97
2023-01-20T14:54:40.884Z,6.30
2023-01-20T14:58:50.584Z,6.63
2023-01-20T15:03:11.870Z,6.07
2023-01-20T15:07:21.521Z,5.60
2023-01-20T15:11:31.396Z,7.57
2023-01-20T15:15:40.040Z,7.03
2023-01-20T15:19:48.554Z,6.80
2023-01-20T15:23:58.736Z,7.07
2023-01-20T15:28:07.314Z,7.77
2023-01-20T15:32:15.941Z,8.43
2023-01-20T15:36:45.928Z,7.40
2023-01-20T15:40:54.702Z,6.57
2023-01-20T15:45:03.332Z,6.20
2023-01-20T15:49:12.574Z,7.13
2023-01-20T15:53:40.410Z,6.53
2023-01-20T15:57:51.477Z,6.37
2023-01-20T16:02:00.211Z,6.27
2023-01-20T16:06:17.573Z,5.20
2023-01-20T16:10:26.109Z,5.83
2023-01-20T16:14:34.866Z,6.10
2023-01-20T16:18:43.502Z,5.33
2023-01-20T16:22:52.528Z,7.07
2023-01-20T16:27:01.083Z,6.10
2023-01-20T16:31:12.948Z,5.20
2023-01-20T16:35:23.608Z,5.20
2023-01-20T16:39:32.361Z,6.30
2023-01-20T16:44:00.352Z,6.20
2023-01-20T16:48:09.308Z,6.30
2023-01-20T16:52:17.842Z,6.60
2023-01-20T16:56:31.309Z,6.70
2023-01-20T17:00:40.510Z,7.50
2023-01-20T17:04:49.123Z,7.17
2023-01-20T17:08:59.391Z,6.33
2023-01-20T17:13:07.963Z,6.63
2023-01-20T17:17:16.548Z,6.33
2023-01-20T17:21:26.408Z,7.50
2023-01-20T17:25:34.962Z,6.70
2023-01-20T17:29:43.576Z,6.30
2023-01-20T17:33:52.351Z,6.93
2023-01-20T17:38:20.275Z,6.97
2023-01-20T17:42:28.900Z,6.43
2023-01-20T17:46:37.510Z,7.23
2023-01-20T17:50:46.309Z,6.37
2023-01-20T17:54:55.129Z,6.87
2023-01-20T17:59:03.673Z,6.70
2023-01-20T18:03:12.354Z,7.67
2023-01-20T18:07:20.899Z,8.00
2023-01-20T18:11:32.247Z,7.53
2023-01-20T18:15:42.669Z,6.40
2023-01-20T18:19:51.375Z,6.13
2023-01-20T18:24:00.702Z,8.17
2023-01-20T18:28:10.902Z,7.37
2023-01-20T18:32:19.425Z,8.43
2023-01-20T18:36:30.342Z,7.23
2023-01-20T18:40:38.920Z,7.17
2023-01-20T18:44:47.548Z,6.83
2023-01-20T18:49:16.995Z,8.23
2023-01-20T18:53:25.636Z,8.43
2023-01-20T18:57:34.329Z,8.17
2023-01-20T19:01:43.520Z,7.23
2023-01-20T19:05:52.195Z,7.50
2023-01-20T19:10:00.789Z,7.20
2023-01-20T19:14:14.404Z,6.67
2023-01-20T19:18:23.000Z,8.50
2023-01-20T19:22:53.032Z,8.73
2023-01-20T19:27:03.025Z,7.53
2023-01-20T19:31:14.651Z,8.73
2023-01-20T19:35:23.318Z,8.13
2023-01-20T19:39:51.311Z,8.25
2023-01-20T19:44:03.124Z,8.00
2023-01-20T19:48:11.835Z,8.87
2023-01-20T19:52:20.461Z,7.67
2023-01-20T19:56:32.242Z,7.30
2023-01-20T20:00:40.789Z,8.33
2023-01-20T20:04:49.360Z,10.20
2023-01-20T20:09:00.551Z,8.90
2023-01-20T20:13:09.136Z,9.00
2023-01-20T20:17:17.695Z,9.33
2023-01-20T20:21:27.542Z,7.50
2023-01-20T20:25:37.727Z,10.90
2023-01-20T20:29:46.410Z,11.87
2023-01-20T20:33:55.734Z,10.23
2023-01-20T20:38:04.736Z,8.57
2023-01-20T20:42:13.336Z,8.13
2023-01-20T20:46:22.220Z,8.60
2023-01-20T20:50:30.868Z,10.07
2023-01-20T20:54:40.376Z,11.33
2023-01-20T20:59:00.828Z,10.90
2023-01-20T21:02:59.170Z,11.30
2023-01-20T21:07:27.124Z,9.07
2023-01-20T21:11:38.263Z,12.30
2023-01-20T21:16:24.299Z,9.03
2023-01-20T21:20:33.592Z,9.60
2023-01-20T21:24:42.150Z,10.47
2023-01-20T21:28:50.848Z,10.00
2023-01-20T21:32:59.445Z,9.23
2023-01-20T21:37:08.445Z,10.00
2023-01-20T21:41:17.653Z,10.40
2023-01-20T21:45:26.202Z,9.53
2023-01-20T21:49:52.938Z,11.43
2023-01-20T21:54:01.559Z,11.50
2023-01-20T21:58:10.260Z,9.40
2023-01-20T22:02:19.230Z,10.88
2023-01-20T22:06:47.182Z,10.20
2023-01-20T22:11:01.671Z,9.90
2023-01-20T22:15:10.818Z,10.33
2023-01-20T22:19:19.517Z,12.37
2023-01-20T22:23:28.066Z,10.40
2023-01-20T22:27:37.751Z,11.10
2023-01-20T22:32:05.805Z,11.80
2023-01-20T22:36:14.514Z,13.40
2023-01-20T22:40:23.163Z,12.20
2023-01-20T22:44:51.133Z,11.43
2023-01-20T22:49:00.505Z,10.00
2023-01-20T22:53:28.450Z,11.70
2023-01-20T22:57:37.083Z,13.07
2023-01-20T23:01:45.706Z,13.10
2023-01-20T23:05:56.916Z,12.67
2023-01-20T23:10:06.718Z,9.93
2023-01-20T23:14:15.347Z,11.60
2023-01-20T23:18:24.935Z,9.60
2023-01-20T23:22:33.585Z,11.50
2023-01-20T23:26:42.191Z,11.87
2023-01-20T23:30:50.850Z,12.93
2023-01-20T23:34:59.549Z,12.17
2023-01-20T23:39:08.077Z,11.27
2023-01-20T23:43:16.703Z,11.93
2023-01-20T23:47:44.583Z,11.60
2023-01-20T23:51:53.110Z,9.60
2023-01-20T23:56:04.200Z,9.87
